createdAt,value
2022-12-08T00:01:27.629Z,7.81
2022-12-08T00:03:56.366Z,7.75
2022-12-08T00:06:48.597Z,7.73
2022-12-08T00:09:23.323Z,7.70
2022-12-08T00:11:58.488Z,7.69
2022-12-08T00:14:54.758Z,7.81
2022-12-08T00:17:22.441Z,7.81
2022-12-08T00:19:50.713Z,7.87
2022-12-08T00:22:17.802Z,7.79
2022-12-08T00:24:47.563Z,7.68
2022-12-08T00:27:16.887Z,7.74
2022-12-08T00:29:45.116Z,7.63
2022-12-08T00:32:12.765Z,7.59
2022-12-08T00:34:40.086Z,7.61
2022-12-08T00:37:07.409Z,7.67
2022-12-08T00:39:34.203Z,7.79
2022-12-08T00:42:12.773Z,7.77
2022-12-08T00:44:43.884Z,7.88
2022-12-08T00:47:12.199Z,7.82
2022-12-08T00:49:39.355Z,7.87
2022-12-08T00:52:06.315Z,7.79
2022-12-08T00:54:33.109Z,7.72
2022-12-08T00:57:00.049Z,7.51
2022-12-08T00:59:26.864Z,7.51
2022-12-08T01:01:53.721Z,7.57
2022-12-08T01:04:21.196Z,7.41
2022-12-08T01:06:48.530Z,7.40
2022-12-08T01:09:17.177Z,7.20
2022-12-08T01:11:44.749Z,7.21
2022-12-08T01:14:12.565Z,7.12
2022-12-08T01:16:41.584Z,7.05
2022-12-08T01:19:10.853Z,7.07
2022-12-08T01:21:38.046Z,7.07
2022-12-08T01:24:05.389Z,6.96
2022-12-08T01:26:32.222Z,6.81
2022-12-08T01:28:59.150Z,6.72
2022-12-08T01:31:26.081Z,6.58
2022-12-08T01:33:53.432Z,6.26
2022-12-08T01:36:26.044Z,6.07
2022-12-08T01:38:54.173Z,6.09
2022-12-08T01:41:24.546Z,6.19
2022-12-08T01:43:58.155Z,6.24
2022-12-08T01:46:25.642Z,6.28
2022-12-08T01:48:57.074Z,6.32
2022-12-08T01:51:24.690Z,6.35
2022-12-08T01:53:52.128Z,6.45
2022-12-08T01:56:51.959Z,6.50
2022-12-08T01:59:19.404Z,6.37
2022-12-08T02:01:51.341Z,6.37
2022-12-08T02:04:18.307Z,6.39
2022-12-08T02:06:47.674Z,6.27
2022-12-08T02:09:15.001Z,6.44
2022-12-08T02:11:41.898Z,6.52
2022-12-08T02:14:11.883Z,6.38
2022-12-08T02:16:50.441Z,6.39
2022-12-08T02:19:54.789Z,6.28
2022-12-08T02:22:39.955Z,6.11
2022-12-08T02:25:42.721Z,6.06
2022-12-08T02:28:34.265Z,5.97
2022-12-08T02:31:38.632Z,5.94
2022-12-08T02:34:17.734Z,5.83
2022-12-08T02:36:57.828Z,5.88
2022-12-08T02:39:36.831Z,5.84
2022-12-08T02:42:31.887Z,5.86
2022-12-08T02:45:15.219Z,5.84
2022-12-08T02:47:43.139Z,5.67
2022-12-08T02:50:10.705Z,5.76
2022-12-08T02:52:46.344Z,5.72
2022-12-08T02:55:19.243Z,5.68
2022-12-08T02:58:15.366Z,5.66
2022-12-08T03:01:14.917Z,5.63
2022-12-08T03:03:54.778Z,5.72
2022-12-08T03:06:32.101Z,5.71
2022-12-08T03:09:10.909Z,5.80
2022-12-08T03:11:48.227Z,5.75
2022-12-08T03:14:16.531Z,5.76
2022-12-08T03:16:47.307Z,5.80
2022-12-08T03:19:20.048Z,5.80
2022-12-08T03:21:51.523Z,5.85
2022-12-08T03:24:21.166Z,5.98
2022-12-08T03:26:57.187Z,5.87
2022-12-08T03:29:24.704Z,5.78
2022-12-08T03:31:58.908Z,5.86
2022-12-08T03:34:28.294Z,6.00
2022-12-08T03:36:55.169Z,6.14
2022-12-08T03:39:22.229Z,6.15
2022-12-08T03:41:49.017Z,6.19
2022-12-08T03:44:15.713Z,6.16
2022-12-08T03:46:42.608Z,6.17
2022-12-08T03:49:09.447Z,5.96
2022-12-08T03:51:36.597Z,5.90
2022-12-08T03:54:04.298Z,5.77
2022-12-08T03:56:37.439Z,5.73
2022-12-08T03:59:05.618Z,5.76
2022-12-08T04:01:32.791Z,5.71
2022-12-08T04:04:00.913Z,5.62
2022-12-08T04:06:27.956Z,5.58
2022-12-08T04:08:55.323Z,5.63
2022-12-08T04:11:22.517Z,5.53
2022-12-08T04:13:49.598Z,5.57
2022-12-08T04:16:19.180Z,5.60
2022-12-08T04:18:47.384Z,5.60
2022-12-08T04:21:14.349Z,5.55
2022-12-08T04:23:42.380Z,5.53
2022-12-08T04:26:09.776Z,5.60
2022-12-08T04:28:37.328Z,5.63
2022-12-08T04:31:04.750Z,5.58
2022-12-08T04:33:34.221Z,5.49
2022-12-08T04:36:01.663Z,5.50
2022-12-08T04:38:29.965Z,5.51
2022-12-08T04:40:57.725Z,5.41
2022-12-08T04:43:25.622Z,5.46
2022-12-08T04:45:52.388Z,5.47
2022-12-08T04:48:19.737Z,5.49
2022-12-08T04:50:46.892Z,5.57
2022-12-08T04:53:14.767Z,5.56
2022-12-08T04:55:44.539Z,5.56
2022-12-08T04:58:16.875Z,5.61
2022-12-08T05:00:45.387Z,5.66
2022-12-08T05:03:13.036Z,5.57
2022-12-08T05:05:40.998Z,5.61
2022-12-08T05:08:09.802Z,5.63
2022-12-08T05:10:37.360Z,5.64
2022-12-08T05:13:04.305Z,5.55
2022-12-08T05:15:31.813Z,5.66
2022-12-08T05:17:58.638Z,5.58
2022-12-08T05:20:25.831Z,5.56
2022-12-08T05:22:52.734Z,5.62
2022-12-08T05:25:19.623Z,5.61
2022-12-08T05:27:46.552Z,5.75
2022-12-08T05:30:13.550Z,5.70
2022-12-08T05:32:40.425Z,5.66
2022-12-08T05:35:07.551Z,5.66
2022-12-08T05:37:34.387Z,5.72
2022-12-08T05:40:01.246Z,5.77
2022-12-08T05:42:28.049Z,5.87
2022-12-08T05:44:54.760Z,5.95
2022-12-08T05:47:21.559Z,5.94
2022-12-08T05:49:48.654Z,5.91
2022-12-08T05:52:16.994Z,6.03
2022-12-08T05:54:44.255Z,6.15
2022-12-08T05:57:11.098Z,6.17
2022-12-08T05:59:39.164Z,6.18
2022-12-08T06:02:06.230Z,6.27
2022-12-08T06:04:33.212Z,6.32
2022-12-08T06:07:00.066Z,6.37
2022-12-08T06:09:27.214Z,6.42
2022-12-08T06:11:54.336Z,6.50
2022-12-08T06:14:21.198Z,6.52
2022-12-08T06:16:48.608Z,6.64
2022-12-08T06:19:16.285Z,6.49
2022-12-08T06:21:43.810Z,6.58
2022-12-08T06:24:11.000Z,6.60
2022-12-08T06:26:40.234Z,6.73
2022-12-08T06:29:07.499Z,6.83
2022-12-08T06:31:34.803Z,6.83
2022-12-08T06:34:01.725Z,6.85
2022-12-08T06:36:29.557Z,7.00
2022-12-08T06:38:56.749Z,7.12
2022-12-08T06:41:24.126Z,7.04
2022-12-08T06:43:51.122Z,7.05
2022-12-08T06:46:19.649Z,6.96
2022-12-08T06:48:47.251Z,6.95
2022-12-08T06:51:17.081Z,6.92
2022-12-08T06:53:45.078Z,7.04
2022-12-08T06:56:13.218Z,7.03
2022-12-08T06:58:40.150Z,7.11
2022-12-08T07:01:09.915Z,7.05
2022-12-08T07:03:37.893Z,7.00
2022-12-08T07:06:05.331Z,7.03
2022-12-08T07:08:33.255Z,7.16
2022-12-08T07:11:00.517Z,7.30
2022-12-08T07:13:27.390Z,7.31
2022-12-08T07:15:54.237Z,7.39
2022-12-08T07:18:21.047Z,7.49
2022-12-08T07:20:47.925Z,7.57
2022-12-08T07:23:15.209Z,7.64
2022-12-08T07:25:42.013Z,7.70
2022-12-08T07:28:11.043Z,7.69
2022-12-08T07:30:38.985Z,7.72
2022-12-08T07:33:06.714Z,7.73
2022-12-08T07:35:34.974Z,7.73
2022-12-08T07:38:03.520Z,7.87
2022-12-08T07:40:30.389Z,7.97
2022-12-08T07:42:57.764Z,8.01
2022-12-08T07:45:31.275Z,8.14
2022-12-08T07:47:58.942Z,8.15
2022-12-08T07:50:25.978Z,8.20
2022-12-08T07:52:53.095Z,8.31
2022-12-08T07:55:19.742Z,8.35
2022-12-08T07:57:50.313Z,8.43
2022-12-08T08:00:18.407Z,8.64
2022-12-08T08:02:45.583Z,8.83
2022-12-08T08:05:13.166Z,9.02
2022-12-08T08:07:43.287Z,9.14
2022-12-08T08:10:13.106Z,9.11
2022-12-08T08:12:40.323Z,8.95
2022-12-08T08:15:08.817Z,9.16
2022-12-08T08:17:37.642Z,9.04
2022-12-08T08:20:09.637Z,8.88
2022-12-08T08:22:37.262Z,8.96
2022-12-08T08:25:04.283Z,9.11
2022-12-08T08:27:31.663Z,9.37
2022-12-08T08:29:58.655Z,9.31
2022-12-08T08:32:25.783Z,9.18
2022-12-08T08:34:53.040Z,9.09
2022-12-08T08:37:21.916Z,9.03
2022-12-08T08:39:48.759Z,9.05
2022-12-08T08:42:16.247Z,9.08
2022-12-08T08:44:43.038Z,9.25
2022-12-08T08:47:10.042Z,9.26
2022-12-08T08:49:37.138Z,9.40
2022-12-08T08:52:05.488Z,9.55
2022-12-08T08:54:32.690Z,9.68
2022-12-08T08:57:00.933Z,9.69
2022-12-08T08:59:28.362Z,9.62
2022-12-08T09:01:55.991Z,9.61
2022-12-08T09:04:23.781Z,9.72
2022-12-08T09:06:50.751Z,9.77
2022-12-08T09:09:18.219Z,9.74
2022-12-08T09:11:45.372Z,9.77
2022-12-08T09:14:14.854Z,9.90
2022-12-08T09:16:42.742Z,10.06
2022-12-08T09:19:09.964Z,10.21
2022-12-08T09:21:36.849Z,10.39
2022-12-08T09:24:04.827Z,10.64
2022-12-08T09:26:31.943Z,10.85
2022-12-08T09:28:58.895Z,11.04
2022-12-08T09:31:26.793Z,11.21
2022-12-08T09:33:53.750Z,11.05
2022-12-08T09:36:21.634Z,11.06
2022-12-08T09:38:51.702Z,11.20
2022-12-08T09:41:37.591Z,11.22
2022-12-08T09:44:42.510Z,11.31
2022-12-08T09:47:14.920Z,11.53
2022-12-08T09:49:51.054Z,11.72
2022-12-08T09:52:36.036Z,11.78
2022-12-08T09:55:10.671Z,11.76
2022-12-08T09:57:37.783Z,11.91
2022-12-08T10:00:06.977Z,12.11
2022-12-08T10:02:34.656Z,12.01
2022-12-08T10:05:01.778Z,12.09
2022-12-08T10:07:56.433Z,12.09
2022-12-08T10:10:48.205Z,12.28
2022-12-08T10:13:53.276Z,12.52
2022-12-08T10:16:30.179Z,12.67
2022-12-08T10:19:21.571Z,12.63
2022-12-08T10:21:49.034Z,12.73
2022-12-08T10:24:40.873Z,12.77
2022-12-08T10:27:14.226Z,12.86
2022-12-08T10:29:41.643Z,12.84
2022-12-08T10:32:19.044Z,13.12
2022-12-08T10:35:00.265Z,13.43
2022-12-08T10:37:27.358Z,13.70
2022-12-08T10:40:17.363Z,13.94
2022-12-08T10:42:53.630Z,14.17
2022-12-08T10:45:23.680Z,14.31
2022-12-08T10:48:04.271Z,14.29
2022-12-08T10:50:43.066Z,13.98
2022-12-08T10:53:10.100Z,14.18
2022-12-08T10:55:48.964Z,14.42
2022-12-08T10:58:35.307Z,14.75
2022-12-08T11:01:10.406Z,14.92
2022-12-08T11:03:59.938Z,15.04
2022-12-08T11:06:32.603Z,15.09
2022-12-08T11:09:22.807Z,15.12
2022-12-08T11:11:54.892Z,15.12
2022-12-08T11:14:26.459Z,14.97
2022-12-08T11:17:05.156Z,14.89
2022-12-08T11:19:38.096Z,14.84
2022-12-08T11:22:35.784Z,14.93
2022-12-08T11:25:03.364Z,14.97
2022-12-08T11:27:32.858Z,14.93
2022-12-08T11:30:02.284Z,14.93
2022-12-08T11:32:29.968Z,14.89
2022-12-08T11:35:04.570Z,14.93
2022-12-08T11:37:43.494Z,15.04
2022-12-08T11:40:23.771Z,15.13
2022-12-08T11:43:06.898Z,15.37
2022-12-08T11:45:36.204Z,15.60
2022-12-08T11:48:05.712Z,15.58
2022-12-08T11:50:51.242Z,15.67
2022-12-08T11:53:39.170Z,15.72
2022-12-08T11:56:39.388Z,15.76
2022-12-08T11:59:15.883Z,15.59
2022-12-08T12:01:43.378Z,15.56
2022-12-08T12:04:31.285Z,15.58
2022-12-08T12:07:12.608Z,15.59
2022-12-08T12:09:57.455Z,15.58
2022-12-08T12:12:46.071Z,15.51
2022-12-08T12:15:37.480Z,15.45
2022-12-08T12:18:29.469Z,15.33
2022-12-08T12:21:19.421Z,15.33
2022-12-08T12:24:03.834Z,15.28
2022-12-08T12:26:38.324Z,15.22
2022-12-08T12:29:16.884Z,15.13
2022-12-08T12:31:50.189Z,15.04
2022-12-08T12:34:19.659Z,14.98
2022-12-08T12:37:07.445Z,14.92
2022-12-08T12:39:45.912Z,14.92
2022-12-08T12:42:41.333Z,14.96
2022-12-08T12:45:17.160Z,14.96
2022-12-08T12:47:56.629Z,15.01
2022-12-08T12:50:38.693Z,15.00
2022-12-08T12:53:18.093Z,15.00
2022-12-08T12:56:12.972Z,14.98
2022-12-08T12:58:41.141Z,15.06
2022-12-08T13:01:11.360Z,15.19
2022-12-08T13:03:51.862Z,15.32
2022-12-08T13:06:35.541Z,15.50
2022-12-08T13:09:02.549Z,15.66
2022-12-08T13:11:29.455Z,15.65
2022-12-08T13:14:04.968Z,15.67
2022-12-08T13:16:34.512Z,15.55
2022-12-08T13:19:04.889Z,15.48
2022-12-08T13:21:39.122Z,15.41
2022-12-08T13:24:18.119Z,15.38
2022-12-08T13:26:46.762Z,15.33
2022-12-08T13:29:24.170Z,15.23
2022-12-08T13:32:03.473Z,15.17
2022-12-08T13:34:34.833Z,15.01
2022-12-08T13:37:13.820Z,15.00
2022-12-08T13:39:40.948Z,15.01
2022-12-08T13:42:35.702Z,14.97
2022-12-08T13:57:29.791Z,15.93
2022-12-08T14:00:01.668Z,16.03
2022-12-08T14:02:35.299Z,16.10
2022-12-08T14:05:20.324Z,16.07
2022-12-08T14:07:53.696Z,16.03
2022-12-08T14:10:27.783Z,15.96
2022-12-08T14:13:05.691Z,15.87
2022-12-08T14:15:37.824Z,15.82
2022-12-08T14:18:07.120Z,15.74
2022-12-08T14:20:51.878Z,15.63
2022-12-08T14:23:22.381Z,15.49
2022-12-08T14:25:49.343Z,15.34
2022-12-08T14:28:16.789Z,15.28
2022-12-08T14:30:43.933Z,15.14
2022-12-08T14:33:17.236Z,15.01
2022-12-08T14:35:51.004Z,14.94
2022-12-08T14:38:19.824Z,14.85
2022-12-08T14:41:07.143Z,14.80
2022-12-08T14:43:34.197Z,14.66
2022-12-08T14:46:05.144Z,14.41
2022-12-08T14:48:33.700Z,14.34
2022-12-08T14:51:16.409Z,14.19
2022-12-08T14:54:05.766Z,14.09
2022-12-08T14:56:40.267Z,14.00
2022-12-08T14:59:21.041Z,13.83
2022-12-08T15:01:51.623Z,13.64
2022-12-08T15:04:24.321Z,13.52
2022-12-08T15:06:58.656Z,13.45
2022-12-08T15:09:46.244Z,13.35
2022-12-08T15:12:13.080Z,13.26
2022-12-08T15:14:55.229Z,13.19
2022-12-08T15:17:40.417Z,13.05
2022-12-08T15:20:34.577Z,12.97
2022-12-08T15:23:02.827Z,12.92
2022-12-08T15:25:29.920Z,12.81
2022-12-08T15:27:58.125Z,12.75
2022-12-08T15:30:28.852Z,12.71
2022-12-08T15:32:56.507Z,12.55
2022-12-08T15:35:23.464Z,12.48
2022-12-08T15:37:50.425Z,12.31
2022-12-08T15:40:20.315Z,12.32
2022-12-08T15:42:47.471Z,12.18
2022-12-08T15:45:15.638Z,12.16
2022-12-08T15:47:44.538Z,12.08
2022-12-08T15:50:17.599Z,12.06
2022-12-08T15:52:44.526Z,12.03
2022-12-08T15:55:16.740Z,11.95
2022-12-08T16:00:53.483Z,11.96
2022-12-08T16:09:42.665Z,11.75
2022-12-08T16:13:13.899Z,11.68
2022-12-08T16:18:23.273Z,11.60
2022-12-08T16:23:45.224Z,11.43
2022-12-08T16:29:06.432Z,11.40
2022-12-08T16:31:33.860Z,11.38
2022-12-08T16:34:00.846Z,11.36
2022-12-08T16:36:27.785Z,11.31
2022-12-08T16:38:54.566Z,11.30
2022-12-08T16:41:40.372Z,11.26
2022-12-08T16:44:07.239Z,11.33
2022-12-08T16:46:34.931Z,11.33
2022-12-08T16:49:01.890Z,11.25
2022-12-08T16:51:28.812Z,11.27
2022-12-08T16:53:57.174Z,11.27
2022-12-08T16:56:31.930Z,11.22
2022-12-08T16:58:59.426Z,11.23
2022-12-08T17:01:26.388Z,11.16
2022-12-08T17:04:22.373Z,11.23
2022-12-08T17:06:40.687Z,11.24
2022-12-08T17:09:07.753Z,11.20
2022-12-08T17:11:40.805Z,11.21
2022-12-08T17:14:09.850Z,11.24
2022-12-08T17:16:36.802Z,11.21
2022-12-08T17:19:03.752Z,11.20
2022-12-08T17:21:30.706Z,11.29
2022-12-08T17:23:59.981Z,11.27
2022-12-08T17:26:26.984Z,11.31
2022-12-08T17:29:01.630Z,11.32
2022-12-08T17:31:31.034Z,11.30
2022-12-08T17:34:04.643Z,11.29
2022-12-08T17:36:31.909Z,11.31
2022-12-08T17:38:59.919Z,11.34
2022-12-08T17:41:27.408Z,11.29
2022-12-08T17:43:54.325Z,11.28
2022-12-08T17:46:22.786Z,11.26
2022-12-08T17:48:50.052Z,11.29
2022-12-08T17:51:17.587Z,11.23
2022-12-08T17:53:44.684Z,11.18
2022-12-08T17:56:17.846Z,11.17
2022-12-08T17:58:47.534Z,11.15
2022-12-08T18:01:18.156Z,11.19
2022-12-08T18:03:45.086Z,11.14
2022-12-08T18:06:12.787Z,11.12
2022-12-08T18:08:40.733Z,11.13
2022-12-08T18:11:13.810Z,11.14
2022-12-08T18:13:40.814Z,11.08
2022-12-08T18:16:07.945Z,11.07
2022-12-08T18:18:34.780Z,10.91
2022-12-08T18:21:01.721Z,10.89
2022-12-08T18:23:28.668Z,10.86
2022-12-08T18:25:55.575Z,10.85
2022-12-08T18:28:22.414Z,10.83
2022-12-08T18:30:49.588Z,10.91
2022-12-08T18:33:16.488Z,10.90
2022-12-08T18:35:43.341Z,10.87
2022-12-08T18:38:10.252Z,10.79
2022-12-08T18:40:37.298Z,10.75
2022-12-08T18:43:04.234Z,10.74
2022-12-08T18:45:31.356Z,10.69
2022-12-08T18:47:58.257Z,10.67
2022-12-08T18:50:25.051Z,10.70
2022-12-08T18:52:51.999Z,10.63
2022-12-08T18:55:18.950Z,10.55
2022-12-08T18:57:45.910Z,10.55
2022-12-08T19:00:15.929Z,10.54
2022-12-08T19:02:43.594Z,10.45
2022-12-08T19:05:12.370Z,10.38
2022-12-08T19:07:39.788Z,10.45
2022-12-08T19:10:07.798Z,10.38
2022-12-08T19:12:34.857Z,10.45
2022-12-08T19:15:01.814Z,10.44
2022-12-08T19:17:29.815Z,10.43
2022-12-08T19:19:56.724Z,10.42
2022-12-08T19:22:23.605Z,10.40
2022-12-08T19:24:50.548Z,10.39
2022-12-08T19:27:17.477Z,10.37
2022-12-08T19:29:44.358Z,10.39
2022-12-08T19:32:11.321Z,10.38
2022-12-08T19:34:38.230Z,10.39
2022-12-08T19:37:05.214Z,10.42
2022-12-08T19:39:50.555Z,10.44
2022-12-08T19:42:38.949Z,10.44
2022-12-08T19:45:19.064Z,10.42
2022-12-08T19:47:45.980Z,10.43
2022-12-08T19:50:33.576Z,10.44
2022-12-08T19:53:01.202Z,10.45
2022-12-08T19:55:28.378Z,10.41
2022-12-08T19:57:56.871Z,10.46
2022-12-08T20:00:24.219Z,10.50
2022-12-08T20:02:51.574Z,10.51
2022-12-08T20:05:18.919Z,10.50
2022-12-08T20:07:46.561Z,10.42
2022-12-08T20:10:23.788Z,10.52
2022-12-08T20:12:51.825Z,10.49
2022-12-08T20:15:19.389Z,10.43
2022-12-08T20:17:46.440Z,10.50
2022-12-08T20:20:14.518Z,10.50
2022-12-08T20:22:42.651Z,10.55
2022-12-08T20:25:12.756Z,10.54
2022-12-08T20:27:40.523Z,10.55
2022-12-08T20:30:13.341Z,10.51
2022-12-08T20:32:43.584Z,10.48
2022-12-08T20:35:10.385Z,10.44
2022-12-08T20:37:37.426Z,10.43
2022-12-08T20:40:06.161Z,10.43
2022-12-08T20:42:33.313Z,10.44
2022-12-08T20:45:00.295Z,10.45
2022-12-08T20:47:27.218Z,10.44
2022-12-08T20:49:54.530Z,10.43
2022-12-08T20:52:21.399Z,10.44
2022-12-08T20:54:48.355Z,10.39
2022-12-08T20:57:15.529Z,10.40
2022-12-08T20:59:42.690Z,10.37
2022-12-08T21:02:11.107Z,10.43
2022-12-08T21:04:39.564Z,10.45
2022-12-08T21:07:08.919Z,10.43
2022-12-08T21:09:36.971Z,10.56
2022-12-08T21:12:04.477Z,10.54
2022-12-08T21:14:31.485Z,10.58
2022-12-08T21:16:58.526Z,10.61
2022-12-08T21:19:25.494Z,10.42
2022-12-08T21:21:52.589Z,10.28
2022-12-08T21:24:19.441Z,10.23
2022-12-08T21:26:46.491Z,10.19
2022-12-08T21:29:13.744Z,10.14
2022-12-08T21:31:40.952Z,10.14
2022-12-08T21:34:08.271Z,10.15
2022-12-08T21:36:35.392Z,10.10
2022-12-08T21:39:02.853Z,10.04
2022-12-08T21:41:49.034Z,10.11
2022-12-08T21:44:20.177Z,10.14
2022-12-08T21:46:47.448Z,10.09
2022-12-08T21:49:14.829Z,10.14
2022-12-08T21:51:42.351Z,10.17
2022-12-08T21:54:18.712Z,10.13
2022-12-08T21:56:47.592Z,10.07
2022-12-08T21:59:15.570Z,10.03
2022-12-08T22:01:45.410Z,10.04
2022-12-08T22:04:16.060Z,10.07
2022-12-08T22:06:43.532Z,10.07
2022-12-08T22:09:13.455Z,10.05
2022-12-08T22:11:41.394Z,10.14
2022-12-08T22:14:14.162Z,10.17
2022-12-08T22:16:42.282Z,10.17
2022-12-08T22:19:09.479Z,10.20
2022-12-08T22:21:38.235Z,10.22
2022-12-08T22:24:06.197Z,10.19
2022-12-08T22:26:33.587Z,10.28
2022-12-08T22:29:00.604Z,10.26
2022-12-08T22:31:27.796Z,10.16
2022-12-08T22:33:55.059Z,10.12
2022-12-08T22:36:24.525Z,10.15
2022-12-08T22:38:52.907Z,10.01
2022-12-08T22:41:20.647Z,9.83
2022-12-08T22:43:48.633Z,9.82
2022-12-08T22:46:19.218Z,9.93
2022-12-08T22:48:46.991Z,9.92
2022-12-08T22:51:13.984Z,10.02
2022-12-08T22:53:41.306Z,10.04
2022-12-08T22:56:11.105Z,10.04
2022-12-08T22:58:39.489Z,10.10
2022-12-08T23:01:07.688Z,10.13
2022-12-08T23:03:35.398Z,10.16
2022-12-08T23:06:02.396Z,10.10
2022-12-08T23:08:29.562Z,10.12
2022-12-08T23:10:56.525Z,10.23
2022-12-08T23:13:23.840Z,10.24
2022-12-08T23:15:51.350Z,10.33
2022-12-08T23:18:21.680Z,10.33
2022-12-08T23:20:49.407Z,10.18
2022-12-08T23:23:16.690Z,10.10
2022-12-08T23:28:34.325Z,10.05
2022-12-08T23:31:01.120Z,10.14
2022-12-08T23:33:28.599Z,10.13
2022-12-08T23:35:58.077Z,10.17
2022-12-08T23:38:26.411Z,10.16
2022-12-08T23:40:53.790Z,9.99
2022-12-08T23:43:21.609Z,10.12
2022-12-08T23:45:48.579Z,10.17
2022-12-08T23:48:15.720Z,10.18
2022-12-08T23:50:43.079Z,10.14
2022-12-08T23:53:10.506Z,10.16
2022-12-08T23:55:37.591Z,10.13
2022-12-08T23:58:05.606Z,10.17
